Crofton, MD

7:38 PM EST on January 31, 2015 (GMT -0500)
Baltimore-Washington International | Change Station
CLOSE
Current Station
Airport
Location: Baltimore,
Elevation: 154 ft
Nearby Weather Stations

Elev 154 ft 39.17 °N, 76.68 °W | Updated 44 minutes ago

Clear
Clear
27 °F
Feels Like 27 °F
N
0
Wind Variable Wind from North

Today
High -- | Low -- °F
--% Chance of Precip.
Yesterday
High -- | Low -- °F
Precip. -- in
7:14 AM 5:26 PM
Waxing Gibbous, 92% visible
Pressure 30.28 in
Visibility 10.0 miles
Clouds Clear
Dew Point 7 °F
Humidity 43%
Rainfall 0.00 in
Snow Depth Not available.
UV 0 out of 12
Pollen .30 out of 12
Air Quality Not available.
Flu Activity Not available.
METAR KBWI 312354Z 00000KT 10SM CLR M03/M14 A3027 RMK AO2 SLP254 T10281139 11006 21033 53008

More Conditions Fewer Conditions

Pressure 30.28 in
Visibility 10.0 miles
Clouds Clear
Dew Point 7 °F
Humidity 43%
Rainfall 0.00 in
Snow Depth Not available.
UV 0 out of 12
Pollen .30 out of 12
Air Quality Not available.
Flu Activity Not available.
METAR KBWI 312354Z 00000KT 10SM CLR M03/M14 A3027 RMK AO2 SLP254 T10281139 11006 21033 53008

More Conditions Fewer Conditions

10-Day Weather Forecast

Almanac

Astronomy

Jan. 31, 2015 Rise Set
Actual Time
Civil Twilight
Nautical Twilight
Astronomical Twilight
Moon
Length of Visible Light
Length of Day
Tomorrow will be .
, % of the Moon is Illuminated

Today's Extremes

State Highs State Lows

Community

WunderPhotos

Upload Photos

1,792,262 photos uploaded!

WunderBlogs® & News

Nearby

Air Quality

  Air Quality AQ Index Pollutant
Not available.

Snow Depth

Station Depth Elevation

Earthquake Activity

City Distance Mag. Time & Date
Minimum magnitude displayed is 2.5.

Coastal Water Temperatures

Place Temperature

Nearby Weather Stations